createdAt,value
2022-12-11T00:01:13.304Z,60.30
2022-12-11T00:03:42.054Z,59.47
2022-12-11T00:06:12.328Z,60.23
2022-12-11T00:08:40.883Z,53.67
2022-12-11T00:11:12.767Z,60.63
2022-12-11T00:13:41.387Z,59.63
2022-12-11T00:16:10.440Z,58.33
2022-12-11T00:18:39.196Z,58.07
2022-12-11T00:21:09.701Z,54.93
2022-12-11T00:23:38.663Z,56.27
2022-12-11T00:26:08.066Z,58.03
2022-12-11T00:28:37.878Z,58.17
2022-12-11T00:31:07.536Z,58.63
2022-12-11T00:33:36.261Z,55.07
2022-12-11T00:36:04.891Z,53.97
2022-12-11T00:38:33.469Z,52.20
2022-12-11T00:41:02.678Z,55.73
2022-12-11T00:43:31.347Z,55.23
2022-12-11T00:46:01.061Z,57.60
2022-12-11T00:48:29.407Z,54.23
2022-12-11T00:50:58.027Z,55.27
2022-12-11T00:53:26.406Z,57.73
2022-12-11T00:55:54.711Z,55.70
2022-12-11T00:58:23.384Z,53.53
2022-12-11T01:00:52.074Z,54.50
2022-12-11T01:03:21.866Z,54.70
2022-12-11T01:05:54.239Z,55.00
2022-12-11T01:08:23.380Z,54.80
2022-12-11T01:10:50.874Z,52.57
2022-12-11T01:13:19.464Z,54.83
2022-12-11T01:15:47.725Z,50.77
2022-12-11T01:18:16.718Z,50.73
2022-12-11T01:20:46.225Z,48.87
2022-12-11T01:23:15.308Z,49.83
2022-12-11T01:25:44.467Z,50.17
2022-12-11T01:28:12.817Z,48.13
2022-12-11T01:30:43.608Z,45.90
2022-12-11T01:33:12.426Z,44.10
2022-12-11T01:35:41.179Z,42.80
2022-12-11T01:38:11.551Z,42.90
2022-12-11T01:40:39.963Z,41.17
2022-12-11T01:43:12.482Z,42.50
2022-12-11T01:45:41.911Z,41.00
2022-12-11T01:48:13.476Z,41.83
2022-12-11T01:50:45.666Z,39.77
2022-12-11T01:53:20.722Z,40.27
2022-12-11T01:55:52.171Z,42.07
2022-12-11T01:58:23.422Z,42.13
2022-12-11T02:00:53.621Z,39.73
2022-12-11T02:03:22.586Z,39.20
2022-12-11T02:05:51.040Z,40.10
2022-12-11T02:08:21.811Z,41.90
2022-12-11T02:11:05.268Z,42.83
2022-12-11T02:13:40.474Z,40.47
2022-12-11T02:16:14.341Z,40.50
2022-12-11T02:18:49.787Z,42.80
2022-12-11T02:21:23.706Z,41.87
2022-12-11T02:24:20.296Z,43.37
2022-12-11T02:27:23.055Z,42.60
2022-12-11T02:29:58.415Z,43.33
2022-12-11T02:32:32.689Z,45.00
2022-12-11T02:35:07.199Z,44.67
2022-12-11T02:37:38.875Z,43.27
2022-12-11T02:40:12.230Z,44.50
2022-12-11T02:42:43.598Z,45.23
2022-12-11T02:45:15.375Z,46.70
2022-12-11T02:47:47.382Z,45.80
2022-12-11T02:50:19.084Z,44.33
2022-12-11T02:52:49.338Z,45.00
2022-12-11T02:55:19.008Z,45.17
2022-12-11T02:57:50.004Z,44.57
2022-12-11T03:00:19.841Z,44.23
2022-12-11T03:02:48.482Z,44.97
2022-12-11T03:05:17.230Z,44.27
2022-12-11T03:07:46.010Z,43.73
2022-12-11T03:10:16.928Z,43.90
2022-12-11T03:12:53.341Z,41.20
2022-12-11T03:15:30.903Z,42.80
2022-12-11T03:18:07.120Z,41.73
2022-12-11T03:20:40.103Z,41.37
2022-12-11T03:23:19.009Z,41.90
2022-12-11T03:25:55.044Z,41.77
2022-12-11T03:28:30.304Z,41.40
2022-12-11T03:31:02.056Z,43.30
2022-12-11T03:33:35.589Z,41.67
2022-12-11T03:36:08.853Z,43.10
2022-12-11T03:38:42.686Z,41.33
2022-12-11T03:41:13.693Z,39.17
2022-12-11T03:43:43.340Z,39.40
2022-12-11T03:46:15.506Z,39.17
2022-12-11T03:48:47.589Z,41.07
2022-12-11T03:51:17.530Z,42.00
2022-12-11T03:53:47.109Z,40.83
2022-12-11T03:56:17.370Z,39.20
2022-12-11T03:58:45.717Z,42.73
2022-12-11T04:01:15.215Z,42.07
2022-12-11T04:03:44.047Z,41.97
2022-12-11T04:06:12.432Z,44.30
2022-12-11T04:08:41.089Z,41.27
2022-12-11T04:11:26.766Z,43.70
2022-12-11T04:14:08.910Z,42.63
2022-12-11T04:16:38.469Z,44.20
2022-12-11T04:19:24.512Z,40.50
2022-12-11T04:22:10.802Z,41.87
2022-12-11T04:24:39.362Z,42.50
2022-12-11T04:27:07.826Z,43.40
2022-12-11T04:29:36.024Z,42.87
2022-12-11T04:32:06.119Z,43.70
2022-12-11T04:34:34.318Z,45.67
2022-12-11T04:37:02.675Z,42.53
2022-12-11T04:39:31.202Z,44.93
2022-12-11T04:41:59.865Z,43.07
2022-12-11T04:44:28.049Z,44.13
2022-12-11T04:46:56.441Z,42.63
2022-12-11T04:49:26.112Z,43.30
2022-12-11T04:51:54.524Z,41.83
2022-12-11T04:54:22.933Z,42.83
2022-12-11T04:56:51.356Z,43.47
2022-12-11T04:59:19.616Z,42.73
2022-12-11T05:01:48.594Z,40.07
2022-12-11T05:04:16.942Z,40.90
2022-12-11T05:06:46.548Z,43.40
2022-12-11T05:09:15.088Z,42.37
2022-12-11T05:11:43.745Z,41.33
2022-12-11T05:14:12.178Z,41.60
2022-12-11T05:16:40.491Z,40.07
2022-12-11T05:19:08.873Z,38.67
2022-12-11T05:21:37.434Z,38.47
2022-12-11T05:24:07.875Z,41.57
2022-12-11T05:26:36.357Z,40.30
2022-12-11T05:29:05.544Z,42.90
2022-12-11T05:31:33.883Z,41.87
2022-12-11T05:34:02.514Z,40.20
2022-12-11T05:36:32.420Z,39.83
2022-12-11T05:39:01.937Z,38.93
2022-12-11T05:41:33.645Z,41.03
2022-12-11T05:44:02.213Z,41.80
2022-12-11T05:46:32.115Z,42.80
2022-12-11T05:49:01.831Z,40.23
2022-12-11T05:51:31.255Z,42.23
2022-12-11T05:54:00.083Z,39.17
2022-12-11T05:56:30.561Z,41.57
2022-12-11T05:59:01.387Z,41.07
2022-12-11T06:01:32.555Z,39.73
2022-12-11T06:04:01.709Z,41.53
2022-12-11T06:06:30.299Z,40.83
2022-12-11T06:09:00.133Z,37.90
2022-12-11T06:11:30.010Z,41.17
2022-12-11T06:14:00.167Z,42.87
2022-12-11T06:16:28.550Z,40.97
2022-12-11T06:18:58.389Z,40.17
2022-12-11T06:21:28.765Z,39.27
2022-12-11T06:23:58.778Z,39.67
2022-12-11T06:26:27.789Z,39.83
2022-12-11T06:28:56.336Z,39.73
2022-12-11T06:31:26.169Z,38.63
2022-12-11T06:33:55.070Z,38.33
2022-12-11T06:36:25.397Z,37.87
2022-12-11T06:38:55.713Z,38.37
2022-12-11T06:41:24.106Z,36.20
2022-12-11T06:43:52.836Z,33.43
2022-12-11T06:46:21.757Z,30.40
2022-12-11T06:48:52.297Z,33.53
2022-12-11T06:51:22.719Z,32.80
2022-12-11T06:53:53.631Z,32.77
2022-12-11T06:56:22.536Z,32.27
2022-12-11T06:58:51.994Z,32.87
2022-12-11T07:01:22.485Z,32.77
2022-12-11T07:03:54.168Z,31.40
2022-12-11T07:06:22.493Z,31.73
2022-12-11T07:08:50.902Z,31.90
2022-12-11T07:11:20.504Z,29.17
2022-12-11T07:13:49.246Z,31.77
2022-12-11T07:16:18.787Z,32.83
2022-12-11T07:18:50.713Z,32.67
2022-12-11T07:21:21.341Z,31.00
2022-12-11T07:23:50.137Z,33.40
2022-12-11T07:26:20.451Z,33.10
2022-12-11T07:28:49.011Z,32.90
2022-12-11T07:31:19.305Z,35.57
2022-12-11T07:33:48.310Z,31.87
2022-12-11T07:36:17.230Z,32.87
2022-12-11T07:38:46.940Z,34.60
2022-12-11T07:41:17.653Z,31.53
2022-12-11T07:43:46.466Z,33.20
2022-12-11T07:46:16.557Z,30.57
2022-12-11T07:48:47.006Z,32.17
2022-12-11T07:51:16.807Z,33.83
2022-12-11T07:53:48.525Z,33.83
2022-12-11T07:56:17.014Z,34.17
2022-12-11T07:58:45.747Z,32.87
2022-12-11T08:01:16.009Z,33.67
2022-12-11T08:03:44.648Z,30.03
2022-12-11T08:06:13.276Z,32.67
2022-12-11T08:08:42.247Z,34.50
2022-12-11T08:11:14.110Z,35.00
2022-12-11T08:13:42.914Z,33.83
2022-12-11T08:16:14.348Z,34.07
2022-12-11T08:18:43.421Z,33.70
2022-12-11T08:21:13.989Z,33.87
2022-12-11T08:23:42.562Z,35.23
2022-12-11T08:26:14.941Z,33.37
2022-12-11T08:28:43.440Z,33.23
2022-12-11T08:31:13.453Z,35.60
2022-12-11T08:33:43.252Z,35.27
2022-12-11T08:36:13.238Z,33.63
2022-12-11T08:38:41.782Z,33.87
2022-12-11T08:41:14.446Z,32.73
2022-12-11T08:43:43.564Z,32.27
2022-12-11T08:46:12.504Z,33.63
2022-12-11T08:48:42.434Z,33.87
2022-12-11T08:51:14.115Z,32.73
2022-12-11T08:53:42.538Z,32.47
2022-12-11T08:56:14.635Z,33.13
2022-12-11T08:58:43.333Z,34.63
2022-12-11T09:01:14.944Z,33.67
2022-12-11T09:03:43.984Z,33.30
2022-12-11T09:06:14.991Z,33.87
2022-12-11T09:08:48.714Z,34.27
2022-12-11T09:11:23.974Z,32.33
2022-12-11T09:13:52.774Z,33.23
2022-12-11T09:16:22.850Z,32.37
2022-12-11T09:18:52.558Z,34.30
2022-12-11T09:21:22.299Z,31.93
2022-12-11T09:23:51.482Z,32.97
2022-12-11T09:26:21.520Z,34.73
2022-12-11T09:28:51.343Z,33.47
2022-12-11T09:31:23.438Z,31.43
2022-12-11T09:33:52.844Z,32.73
2022-12-11T09:36:21.105Z,32.97
2022-12-11T09:38:49.621Z,31.60
2022-12-11T09:41:40.617Z,31.97
2022-12-11T09:44:20.385Z,34.63
2022-12-11T09:46:49.748Z,35.13
2022-12-11T09:49:29.696Z,35.37
2022-12-11T09:52:08.479Z,34.30
2022-12-11T09:54:36.910Z,35.07
2022-12-11T09:57:15.653Z,35.40
2022-12-11T09:59:52.939Z,34.77
2022-12-11T10:02:32.121Z,35.13
2022-12-11T10:05:10.196Z,35.97
2022-12-11T10:07:47.554Z,31.97
2022-12-11T10:10:26.003Z,33.17
2022-12-11T10:13:03.736Z,33.27
2022-12-11T10:15:40.960Z,35.70
2022-12-11T10:18:15.205Z,36.30
2022-12-11T10:20:45.327Z,36.20
2022-12-11T10:23:19.913Z,37.20
2022-12-11T10:25:54.679Z,37.57
2022-12-11T10:28:24.700Z,33.20
2022-12-11T10:31:00.668Z,39.10
2022-12-11T10:33:35.816Z,39.37
2022-12-11T10:36:05.196Z,40.00
2022-12-11T10:38:34.586Z,40.03
2022-12-11T10:41:04.081Z,37.00
2022-12-11T10:43:39.913Z,37.80
2022-12-11T10:46:16.020Z,38.23
2022-12-11T10:48:47.898Z,35.87
2022-12-11T10:51:16.581Z,39.23
2022-12-11T10:53:45.225Z,35.00
2022-12-11T10:56:14.505Z,40.83
2022-12-11T10:58:51.644Z,35.93
2022-12-11T11:01:23.060Z,40.37
2022-12-11T11:03:57.918Z,39.43
2022-12-11T11:06:27.585Z,37.47
2022-12-11T11:08:57.465Z,38.43
2022-12-11T11:11:29.293Z,36.83
2022-12-11T11:14:14.908Z,40.07
2022-12-11T11:16:45.245Z,37.70
2022-12-11T11:19:21.519Z,33.97
2022-12-11T11:21:52.452Z,32.30
2022-12-11T11:24:28.480Z,33.23
2022-12-11T11:27:12.943Z,32.83
2022-12-11T11:29:46.701Z,32.97
2022-12-11T11:32:23.130Z,31.47
2022-12-11T11:34:51.560Z,35.03
2022-12-11T11:37:31.888Z,36.27
2022-12-11T11:40:07.019Z,39.70
2022-12-11T11:42:44.132Z,35.20
2022-12-11T11:45:17.554Z,37.27
2022-12-11T11:47:56.223Z,39.67
2022-12-11T11:50:29.770Z,36.53
2022-12-11T11:53:06.137Z,34.23
2022-12-11T11:55:43.711Z,32.87
2022-12-11T11:58:19.366Z,32.40
2022-12-11T12:00:48.918Z,34.40
2022-12-11T12:03:19.606Z,31.33
2022-12-11T12:05:53.245Z,36.27
2022-12-11T12:08:35.182Z,33.83
2022-12-11T12:11:10.269Z,34.27
2022-12-11T12:13:50.500Z,30.87
2022-12-11T12:16:52.197Z,33.93
2022-12-11T12:19:30.623Z,34.73
2022-12-11T12:22:09.436Z,34.20
2022-12-11T12:24:50.317Z,34.50
2022-12-11T12:27:50.928Z,31.07
2022-12-11T12:30:18.814Z,28.57
2022-12-11T12:33:04.757Z,27.17
2022-12-11T12:35:37.192Z,27.03
2022-12-11T12:38:11.226Z,24.77
2022-12-11T12:40:49.599Z,23.57
2022-12-11T12:43:41.523Z,24.30
2022-12-11T12:46:22.141Z,26.77
2022-12-11T12:48:53.405Z,24.40
2022-12-11T12:51:21.923Z,23.53
2022-12-11T12:53:56.842Z,25.27
2022-12-11T12:56:25.849Z,26.77
2022-12-11T12:58:54.381Z,25.17
2022-12-11T13:01:25.551Z,25.07
2022-12-11T13:03:59.147Z,25.43
2022-12-11T13:06:33.839Z,24.63
2022-12-11T13:09:14.595Z,24.67
2022-12-11T13:11:43.328Z,23.93
2022-12-11T13:14:28.531Z,26.27
2022-12-11T13:17:09.557Z,27.10
2022-12-11T13:19:42.723Z,26.67
2022-12-11T13:22:24.571Z,28.60
2022-12-11T13:25:01.778Z,25.33
2022-12-11T13:27:39.076Z,28.53
2022-12-11T13:30:09.567Z,29.90
2022-12-11T13:32:38.305Z,31.17
2022-12-11T13:35:15.310Z,31.47
2022-12-11T13:37:45.356Z,31.20
2022-12-11T13:40:20.450Z,29.87
2022-12-11T13:42:51.999Z,31.77
2022-12-11T13:45:23.973Z,30.60
2022-12-11T13:47:52.392Z,32.33
2022-12-11T13:50:26.446Z,30.10
2022-12-11T13:52:55.661Z,31.23
2022-12-11T13:55:26.501Z,30.17
2022-12-11T13:57:54.958Z,31.03
2022-12-11T14:00:25.657Z,29.37
2022-12-11T14:02:56.466Z,27.90
2022-12-11T14:05:26.320Z,28.27
2022-12-11T14:07:57.377Z,25.20
2022-12-11T14:10:27.781Z,23.57
2022-12-11T14:13:00.983Z,22.97
2022-12-11T14:15:31.746Z,21.33
2022-12-11T14:18:01.349Z,20.90
2022-12-11T14:20:33.185Z,20.33
2022-12-11T14:23:07.046Z,20.37
2022-12-11T14:25:35.436Z,21.93
2022-12-11T14:28:04.209Z,21.37
2022-12-11T14:30:47.365Z,21.63
2022-12-11T14:33:18.064Z,20.63
2022-12-11T14:35:48.836Z,21.87
2022-12-11T14:38:20.894Z,22.03
2022-12-11T14:40:54.364Z,22.17
2022-12-11T14:43:27.301Z,23.73
2022-12-11T14:45:59.185Z,23.30
2022-12-11T14:48:30.056Z,24.30
2022-12-11T14:51:04.984Z,25.53
2022-12-11T14:53:37.406Z,26.70
2022-12-11T14:56:08.361Z,27.83
2022-12-11T14:58:44.353Z,29.23
2022-12-11T15:01:25.792Z,28.20
2022-12-11T15:04:05.276Z,25.97
2022-12-11T15:06:36.952Z,25.73
2022-12-11T15:09:18.629Z,26.60
2022-12-11T15:11:48.284Z,24.37
2022-12-11T15:14:19.293Z,24.37
2022-12-11T15:16:50.302Z,24.80
2022-12-11T15:19:25.466Z,30.93
2022-12-11T15:21:55.731Z,31.17
2022-12-11T15:24:31.380Z,34.23
2022-12-11T15:27:01.145Z,34.67
2022-12-11T15:29:35.155Z,33.97
2022-12-11T15:32:19.590Z,36.20
2022-12-11T15:34:50.025Z,35.03
2022-12-11T15:37:24.857Z,34.40
2022-12-11T15:39:53.690Z,33.70
2022-12-11T15:42:26.949Z,33.70
2022-12-11T15:44:56.451Z,34.33
2022-12-11T15:47:26.614Z,35.70
2022-12-11T15:49:56.553Z,33.13
2022-12-11T15:52:26.418Z,34.80
2022-12-11T15:54:54.924Z,33.83
2022-12-11T15:57:25.307Z,32.53
2022-12-11T15:59:55.116Z,34.00
2022-12-11T16:02:24.521Z,32.97
2022-12-11T16:04:52.996Z,32.77
2022-12-11T16:07:23.810Z,31.87
2022-12-11T16:09:54.327Z,30.80
2022-12-11T16:12:22.727Z,33.33
2022-12-11T16:14:51.171Z,35.10
2022-12-11T16:17:19.909Z,33.80
2022-12-11T16:19:48.266Z,35.93
2022-12-11T16:22:16.784Z,34.87
2022-12-11T16:24:45.237Z,36.77
2022-12-11T16:27:18.573Z,33.10
2022-12-11T16:29:49.722Z,35.43
2022-12-11T16:32:18.670Z,34.83
2022-12-11T16:34:47.114Z,33.43
2022-12-11T16:37:15.643Z,33.13
2022-12-11T16:39:45.982Z,38.60
2022-12-11T16:42:15.650Z,32.93
2022-12-11T16:44:44.442Z,35.57
2022-12-11T16:47:12.963Z,32.40
2022-12-11T16:49:42.065Z,31.13
2022-12-11T16:52:10.656Z,32.83
2022-12-11T16:54:39.207Z,30.77
2022-12-11T16:57:07.609Z,32.27
2022-12-11T16:59:37.862Z,32.87
2022-12-11T17:02:06.655Z,31.10
2022-12-11T17:04:35.048Z,31.27
2022-12-11T17:07:03.495Z,29.43
2022-12-11T17:09:31.870Z,30.17
2022-12-11T17:12:00.829Z,30.83
2022-12-11T17:14:29.129Z,29.57
2022-12-11T17:16:58.915Z,29.20
2022-12-11T17:19:27.373Z,30.97
2022-12-11T17:21:56.374Z,30.43
2022-12-11T17:24:24.697Z,30.47
2022-12-11T17:26:53.760Z,30.73
2022-12-11T17:29:22.297Z,30.20
2022-12-11T17:31:50.487Z,28.70
2022-12-11T17:34:20.254Z,27.10
2022-12-11T17:36:48.821Z,28.53
2022-12-11T17:39:17.331Z,29.80
2022-12-11T17:41:45.938Z,27.73
2022-12-11T17:44:14.196Z,27.70
2022-12-11T17:46:43.228Z,28.23
2022-12-11T17:49:11.520Z,27.60
2022-12-11T17:51:41.630Z,27.10
2022-12-11T17:54:09.898Z,27.37
2022-12-11T17:56:38.320Z,27.57
2022-12-11T17:59:06.756Z,26.40
2022-12-11T18:01:35.579Z,25.40
2022-12-11T18:04:04.735Z,25.23
2022-12-11T18:06:33.224Z,26.77
2022-12-11T18:09:02.747Z,25.17
2022-12-11T18:11:31.375Z,25.60
2022-12-11T18:13:59.942Z,26.90
2022-12-11T18:16:29.992Z,28.10
2022-12-11T18:18:58.457Z,28.00
2022-12-11T18:21:29.364Z,28.17
2022-12-11T18:23:57.968Z,29.00
2022-12-11T18:26:27.513Z,28.60
2022-12-11T18:28:56.064Z,28.70
2022-12-11T18:31:24.988Z,29.23
2022-12-11T18:33:53.852Z,29.00
2022-12-11T18:36:22.397Z,28.63
2022-12-11T18:38:50.952Z,29.07
2022-12-11T18:41:20.262Z,28.83
2022-12-11T18:43:50.188Z,27.70
2022-12-11T18:46:20.489Z,29.17
2022-12-11T18:48:49.742Z,27.63
2022-12-11T18:51:22.009Z,29.80
2022-12-11T18:53:50.744Z,28.90
2022-12-11T18:56:20.246Z,30.00
2022-12-11T18:58:49.873Z,29.50
2022-12-11T19:01:20.695Z,30.03
2022-12-11T19:03:49.844Z,27.97
2022-12-11T19:06:20.056Z,28.90
2022-12-11T19:08:48.712Z,30.33
2022-12-11T19:11:18.127Z,26.80
2022-12-11T19:13:47.208Z,28.17
2022-12-11T19:16:22.933Z,27.93
2022-12-11T19:18:51.942Z,30.00
2022-12-11T19:21:20.557Z,27.57
2022-12-11T19:23:49.475Z,29.23
2022-12-11T19:26:19.933Z,25.83
2022-12-11T19:28:49.065Z,27.23
2022-12-11T19:31:20.932Z,28.37
2022-12-11T19:33:49.524Z,28.57
2022-12-11T19:36:19.344Z,29.40
2022-12-11T19:38:47.624Z,27.17
2022-12-11T19:41:17.793Z,29.23
2022-12-11T19:43:46.614Z,28.43
2022-12-11T19:46:15.859Z,27.70
2022-12-11T19:48:45.755Z,26.50
2022-12-11T19:51:15.959Z,26.37
2022-12-11T19:53:46.560Z,28.17
2022-12-11T19:56:15.538Z,27.33
2022-12-11T19:58:44.208Z,24.50
2022-12-11T20:01:19.656Z,25.17
2022-12-11T20:03:50.006Z,30.25
2022-12-11T20:06:18.345Z,28.27
2022-12-11T20:08:46.810Z,28.53
2022-12-11T20:11:18.730Z,27.67
2022-12-11T20:13:48.087Z,29.17
2022-12-11T20:16:20.006Z,26.80
2022-12-11T20:18:58.471Z,28.57
2022-12-11T20:21:27.272Z,28.60
2022-12-11T20:23:55.673Z,30.23
2022-12-11T20:26:25.582Z,31.63
2022-12-11T20:28:54.444Z,30.97
2022-12-11T20:31:24.971Z,29.70
2022-12-11T20:33:54.574Z,30.43
2022-12-11T20:36:25.956Z,31.77
2022-12-11T20:38:54.781Z,31.07
2022-12-11T20:41:24.559Z,30.53
2022-12-11T20:43:54.223Z,26.40
2022-12-11T20:46:24.961Z,28.50
2022-12-11T20:48:53.520Z,28.73
2022-12-11T20:51:26.473Z,27.70
2022-12-11T20:53:57.559Z,28.73
2022-12-11T20:56:27.140Z,27.23
2022-12-11T20:58:55.763Z,26.87
2022-12-11T21:01:25.607Z,27.07
2022-12-11T21:03:54.540Z,27.73
2022-12-11T21:06:26.415Z,27.07
2022-12-11T21:08:55.147Z,27.57
2022-12-11T21:11:23.698Z,27.73
2022-12-11T21:13:52.814Z,27.50
2022-12-11T21:16:21.961Z,29.97
2022-12-11T21:18:50.456Z,24.07
2022-12-11T21:21:19.564Z,30.67
2022-12-11T21:23:49.373Z,22.60
2022-12-11T21:26:18.012Z,28.70
2022-12-11T21:28:46.452Z,27.83
2022-12-11T21:31:16.692Z,28.13
2022-12-11T21:33:45.726Z,27.63
2022-12-11T21:36:14.956Z,27.87
2022-12-11T21:38:44.839Z,28.33
2022-12-11T21:41:16.365Z,27.87
2022-12-11T21:46:33.961Z,25.63
2022-12-11T21:49:02.686Z,27.03
2022-12-11T21:51:37.175Z,27.60
2022-12-11T21:54:09.243Z,28.90
2022-12-11T21:56:39.016Z,26.57
2022-12-11T21:59:07.466Z,27.60
2022-12-11T22:01:38.349Z,28.87
2022-12-11T22:04:06.847Z,28.47
2022-12-11T22:06:35.535Z,27.67
2022-12-11T22:09:05.188Z,28.03
2022-12-11T22:11:35.109Z,28.57
2022-12-11T22:14:06.838Z,27.87
2022-12-11T22:16:36.066Z,27.97
2022-12-11T22:19:04.311Z,26.40
2022-12-11T22:21:32.604Z,28.40
2022-12-11T22:24:01.141Z,27.27
2022-12-11T22:26:29.840Z,28.90
2022-12-11T22:28:58.327Z,28.27
2022-12-11T22:31:29.124Z,27.03
2022-12-11T22:33:57.848Z,27.80
2022-12-11T22:36:27.785Z,28.03
2022-12-11T22:38:56.813Z,29.40
2022-12-11T22:41:27.028Z,28.97
2022-12-11T22:43:55.930Z,29.77
2022-12-11T22:46:26.457Z,27.77
2022-12-11T22:48:56.208Z,27.90
2022-12-11T22:51:24.614Z,29.00
2022-12-11T22:53:53.348Z,29.10
2022-12-11T22:56:21.648Z,27.67
2022-12-11T22:58:49.883Z,28.07
2022-12-11T23:01:19.999Z,28.10
2022-12-11T23:03:48.884Z,28.20
2022-12-11T23:06:20.557Z,28.20
2022-12-11T23:08:49.229Z,28.30
2022-12-11T23:11:19.672Z,29.40
2022-12-11T23:13:48.289Z,28.53
2022-12-11T23:16:17.134Z,28.73
2022-12-11T23:18:45.503Z,27.47
2022-12-11T23:21:14.483Z,27.53
2022-12-11T23:23:44.193Z,27.43
2022-12-11T23:26:13.920Z,26.33
2022-12-11T23:28:42.768Z,27.70
2022-12-11T23:31:11.271Z,27.07
2022-12-11T23:33:40.121Z,27.77
2022-12-11T23:36:09.216Z,26.73
2022-12-11T23:38:37.499Z,26.80
2022-12-11T23:41:09.189Z,27.77
2022-12-11T23:43:38.539Z,29.20
2022-12-11T23:46:11.503Z,27.63
2022-12-11T23:48:40.126Z,26.43
2022-12-11T23:51:08.614Z,26.80
2022-12-11T23:53:37.621Z,27.07
2022-12-11T23:56:09.713Z,27.07
2022-12-11T23:58:38.858Z,24.77
